Data for 01/17/2014

Time Sea-Level Adjusted Pressure Absolute Pressure Temperature Relative Humidity Dew Point   
(mb) (inHg) (mb) (inHg) (C) (F) (%) (C) (F)
00:05 1026 30.3 855 25.25 2.2 36 36 -11.3 11.7
00:10 1026 30.3 855 25.25 1.7 35 38 -11.1 12.1
00:15 1026 30.3 855 25.25 1.3 34.4 41 -10.7 12.8
00:20 1026 30.3 855 25.25 1.1 33.9 43 -10.2 13.7
00:25 1026 30.3 855 25.25 1.1 34.1 39 -11.4 11.5
00:30 1026 30.3 855 25.25 1.2 34.1 37 -12.1 10.3
00:35 1026 30.3 855 25.25 1.6 34.9 39 -10.8 12.6
00:40 1026 30.3 855 25.25 0.5 32.8 46 -9.9 14.2
00:45 1026 30.3 855 25.25 -0.2 31.6 47 -10.2 13.7
00:50 1026 30.3 855 25.25 -0.6 30.9 48 -10.2 13.6
00:55 1026 30.3 855 25.25 -0.6 30.9 47 -10.5 13.2
01:00 1026 30.3 855 25.25 -0.4 31.4 47 -10.5 13.1
01:05 1026 30.3 855 25.25 -0.3 31.4 48 -10.1 13.8
01:10 1026 30.3 855 25.25 -0.3 31.4 46 -10.5 13.1
01:15 1026 30.3 855 25.25 -0.4 31.3 47 -10.4 13.3
01:20 1025 30.27 855 25.25 -0.6 31 46 -10.8 12.6
01:25 1025 30.27 855 25.25 -0.6 31 47 -10.5 13.2
01:30 1025 30.27 855 25.25 -0.6 30.8 48 -10.4 13.2
01:35 1025 30.27 855 25.25 -0.8 30.5 48 -10.5 13
01:40 1025 30.27 854 25.22 -1 30.2 49 -10.5 13.1
01:45 1025 30.27 854 25.22 -1 30.3 47 -10.8 12.5
01:50 1025 30.27 854 25.22 -0.8 30.5 46 -10.9 12.3
01:55 1025 30.27 854 25.22 -0.8 30.5 46 -11 12.3
02:00 1025 30.27 854 25.22 -0.8 30.6 45 -11.2 11.8
02:05 1025 30.27 854 25.22 -0.7 30.8 45 -11.1 12
02:10 1025 30.27 854 25.22 -0.6 30.9 45 -11.3 11.7
02:15 1025 30.27 854 25.22 -0.7 30.8 46 -11 12.1
02:20 1025 30.27 854 25.22 -0.8 30.5 45 -11.3 11.6
02:25 1025 30.27 854 25.22 -0.8 30.6 44 -11.5 11.3
02:30 1025 30.27 854 25.22 -0.6 31 41 -12.1 10.1
02:35 1025 30.27 854 25.22 -0.4 31.3 42 -11.8 10.7
02:40 1025 30.27 854 25.22 -0.2 31.6 41 -12 10.3
02:45 1025 30.27 854 25.22 0.1 32.2 40 -11.9 10.7
02:50 1025 30.27 854 25.22 0.5 33 38 -12.1 10.1
02:55 1025 30.27 854 25.22 0.7 33.3 40 -11.6 11.2
03:00 1025 30.27 854 25.22 0.4 32.7 40 -11.8 10.7
03:05 1025 30.27 854 25.22 -0.1 31.7 43 -11.3 11.7
03:10 1025 30.27 854 25.22 -0.3 31.5 44 -11 12.1
03:15 1025 30.27 854 25.22 0 32.1 39 -12.3 9.9
03:20 1025 30.27 854 25.22 0.1 32.1 40 -12 10.4
03:25 1025 30.27 854 25.22 -0.2 31.6 41 -11.9 10.6
03:30 1025 30.27 854 25.22 -0.3 31.5 42 -11.7 10.9
03:35 1025 30.27 854 25.22 -0.6 31 43 -11.7 10.9
03:40 1025 30.27 854 25.22 -0.5 31.1 42 -11.9 10.6
03:45 1025 30.27 854 25.22 -0.7 30.8 43 -11.8 10.8
03:50 1025 30.27 854 25.22 -0.9 30.3 44 -11.8 10.8
03:55 1025 30.27 854 25.22 -1 30.2 43 -12.2 10
04:00 1025 30.27 854 25.22 -1 30.3 43 -12.1 10.2
04:05 1025 30.27 854 25.22 -0.9 30.3 40 -12.8 8.9
04:10 1025 30.27 854 25.22 -0.7 30.8 41 -12.5 9.5
04:15 1025 30.27 854 25.22 -0.6 30.8 41 -12.3 9.8
04:20 1025 30.27 854 25.22 -0.8 30.6 41 -12.5 9.6
04:25 1025 30.27 854 25.22 -0.9 30.5 42 -12.3 9.9
04:30 1025 30.27 854 25.22 -1.1 30 43 -12.1 10.1
04:35 1025 30.27 854 25.22 -1.2 29.8 43 -12.3 9.9
04:40 1025 30.27 854 25.22 -1.3 29.6 44 -12.2 10
04:45 1024 30.24 854 25.22 -1.5 29.3 44 -12.2 10
04:50 1024 30.24 854 25.22 -1.4 29.4 44 -12.3 9.9
04:55 1024 30.24 854 25.22 -1.4 29.5 43 -12.4 9.6
05:00 1024 30.24 854 25.22 -1.4 29.5 44 -12.1 10.2
05:05 1024 30.24 853 25.19 -1.5 29.2 46 -11.7 10.9
05:10 1024 30.24 853 25.19 -1.6 29.2 46 -11.8 10.7
05:15 1024 30.24 853 25.19 -1.5 29.3 45 -12 10.3
05:20 1024 30.24 853 25.19 -1.5 29.3 46 -11.8 10.7
05:25 1024 30.24 853 25.19 -1.6 29.2 47 -11.6 11.2
05:30 1024 30.24 853 25.19 -1.6 29.2 45 -12 10.5
05:35 1024 30.24 853 25.19 -1.7 29 45 -12.3 9.9
05:40 1024 30.24 853 25.19 -1.5 29.3 45 -11.9 10.5
05:45 1024 30.24 853 25.19 -1.9 28.6 46 -12 10.5
05:50 1024 30.24 853 25.19 -2.2 28 46 -12.2 10
05:55 1024 30.24 853 25.19 -2.1 28.1 46 -12.3 9.9
06:00 1024 30.24 853 25.19 -2 28.4 45 -12.4 9.8
06:05 1024 30.24 853 25.19 -2 28.4 46 -12.2 10
06:10 1024 30.24 853 25.19 -2.1 28.1 45 -12.5 9.4
06:15 1024 30.24 853 25.19 -1.9 28.5 46 -12.2 10.1
06:20 1024 30.24 853 25.19 -2.1 28.3 46 -12.2 10
06:25 1024 30.24 853 25.19 -2.2 28.1 47 -11.9 10.5
06:30 1024 30.24 853 25.19 -2.7 27.1 49 -12.1 10.1
06:35 1024 30.24 853 25.19 -2.7 27.2 49 -11.9 10.6
06:40 1024 30.24 853 25.19 -2.9 26.7 52 -11.4 11.4
06:45 1024 30.24 853 25.19 -3.2 26.3 52 -11.6 11
06:50 1024 30.24 853 25.19 -3.1 26.5 51 -11.9 10.6
06:55 1024 30.24 853 25.19 -2.9 26.8 49 -12.2 10.1
07:00 1024 30.24 853 25.19 -2.5 27.6 48 -12.1 10.2
07:05 1024 30.24 853 25.19 -2.2 28 50 -11.4 11.5
07:10 1024 30.24 853 25.19 -2.7 27.1 53 -11.1 12
07:15 1024 30.24 853 25.19 -3.7 25.3 53 -11.8 10.7
07:20 1024 30.24 853 25.19 -3.4 25.9 50 -12.3 9.9
07:25 1023 30.21 853 25.19 -2.7 27.2 48 -12.3 9.8
07:30 1023 30.21 853 25.19 -2.2 28.1 46 -12.3 9.8
07:35 1023 30.21 853 25.19 -2.6 27.3 52 -11.3 11.7
07:40 1023 30.21 853 25.19 -3.8 25.1 55 -11.7 11
07:45 1023 30.21 853 25.19 -3.8 25.1 54 -11.8 10.7
07:50 1023 30.21 852 25.16 -3.9 24.9 54 -11.9 10.6
07:55 1023 30.21 852 25.16 -3.8 25.1 52 -12.4 9.7
08:00 1023 30.21 852 25.16 -2.9 26.8 47 -12.8 9
08:05 1023 30.21 852 25.16 -2.1 28.2 47 -12 10.5
08:10 1023 30.21 852 25.16 -3.2 26.2 54 -11.2 11.8
08:15 1023 30.21 852 25.16 -4 24.8 54 -12 10.4
08:20 1023 30.21 852 25.16 -3.7 25.3 50 -12.8 9
08:25 1023 30.21 852 25.16 -2.4 27.7 47 -12.3 9.8
08:30 1023 30.21 852 25.16 -2.2 28 48 -11.8 10.7
08:35 1023 30.21 852 25.16 -2.6 27.4 50 -11.7 10.9
08:40 1023 30.21 852 25.16 -2.9 26.9 49 -12.1 10.2
08:45 1023 30.21 852 25.16 -3.4 25.8 51 -12.1 10.3
08:50 1023 30.21 852 25.16 -3.2 26.2 52 -11.7 11
08:55 1023 30.21 852 25.16 -4.1 24.5 55 -11.8 10.7
09:00 1023 30.21 852 25.16 -4.1 24.7 54 -12.1 10.1
09:05 1023 30.21 852 25.16 -3.8 25.1 54 -11.8 10.7
09:10 1023 30.21 852 25.16 -3.4 25.8 50 -12.4 9.7
09:15 1023 30.21 852 25.16 -3 26.6 50 -12.2 10.1
09:20 1023 30.21 852 25.16 -2.9 26.7 49 -12.1 10.2
09:25 1023 30.21 852 25.16 -3.1 26.3 51 -11.9 10.6
09:30 1023 30.21 852 25.16 -2.9 26.7 48 -12.5 9.5
09:35 1023 30.21 852 25.16 -2.3 27.8 48 -12 10.4
09:40 1023 30.21 852 25.16 -2.3 27.9 48 -11.9 10.7
09:45 1023 30.21 852 25.16 -3 26.6 50 -12.1 10.3
09:50 1023 30.21 852 25.16 -2.6 27.4 49 -11.9 10.5
09:55 1023 30.21 852 25.16 -2.1 28.3 49 -11.5 11.4
10:00 1023 30.21 852 25.16 -2.6 27.3 49 -12 10.4
10:05 1023 30.21 852 25.16 -2.7 27.1 48 -12.2 10.1
10:10 1023 30.21 852 25.16 -2.2 28.1 47 -12.1 10.1
10:15 1023 30.21 852 25.16 -1.9 28.5 45 -12.2 10
10:20 1023 30.21 852 25.16 -1.6 29.1 45 -12 10.4
10:25 1023 30.21 852 25.16 -1.4 29.5 45 -11.9 10.6
10:30 1023 30.21 852 25.16 -1.2 29.8 45 -11.8 10.7
10:35 1023 30.21 852 25.16 -0.7 30.7 43 -11.8 10.8
10:40 1023 30.21 852 25.16 -0.5 31.1 42 -11.8 10.7
10:45 1023 30.21 852 25.16 -0.1 31.8 41 -11.7 10.9
10:50 1023 30.21 852 25.16 0.2 32.3 42 -11.2 11.8
10:55 1023 30.21 852 25.16 0 32.1 41 -11.6 11.2
11:00 1023 30.21 852 25.16 0.3 32.5 40 -11.8 10.7
11:05 1023 30.21 852 25.16 0.7 33.3 40 -11.4 11.5
11:10 1023 30.21 852 25.16 1.2 34.1 39 -11.4 11.6
11:15 1023 30.21 852 25.16 1.8 35.2 37 -11.5 11.4
11:20 1023 30.21 852 25.16 2.4 36.4 35 -11.4 11.4
11:25 1023 30.21 852 25.16 2.7 36.9 34 -11.6 11.1
11:30 1023 30.21 852 25.16 3.2 37.8 32 -11.9 10.6
11:35 1023 30.21 852 25.16 3.8 38.8 32 -11.4 11.4
11:40 1023 30.21 852 25.16 4 39.2 32 -11.2 11.9
11:45 1023 30.21 852 25.16 4.1 39.4 31 -11.6 11.1
11:50 1023 30.21 852 25.16 4.4 39.9 31 -11.3 11.6
11:55 1023 30.21 852 25.16 4.4 39.9 31 -11.2 11.9
12:00 1023 30.21 852 25.16 4.4 39.8 32 -10.9 12.5
12:05 1023 30.21 852 25.16 4.4 39.8 33 -10.4 13.3
12:10 1023 30.21 852 25.16 4.5 40.1 33 -10.6 12.9
12:15 1023 30.21 852 25.16 4.8 40.7 33 -10.1 13.8
12:20 1023 30.21 852 25.16 4.1 39.4 35 -10.2 13.7
12:25 1023 30.21 852 25.16 3.7 38.7 37 -9.6 14.7
12:30 1023 30.21 852 25.16 3.2 37.8 39 -9.4 15.2
12:35 1023 30.21 852 25.16 3.3 37.9 41 -8.8 16.2
12:40 1023 30.21 852 25.16 3.3 37.9 39 -9.3 15.3
12:45 1023 30.21 852 25.16 3.7 38.6 39 -9.1 15.6
12:50 1023 30.21 852 25.16 4.2 39.5 38 -8.8 16.1
12:55 1023 30.21 852 25.16 4.2 39.5 37 -9.4 15.1
13:00 1023 30.21 852 25.16 4.5 40.1 36 -9.5 15
13:05 1023 30.21 852 25.16 4.9 40.8 36 -9.1 15.7
13:10 1023 30.21 852 25.16 4.4 40 35 -9.7 14.6
13:15 1023 30.21 852 25.16 4.9 40.9 35 -9.3 15.3
13:20 1023 30.21 852 25.16 5.3 41.5 35 -8.9 15.9
13:25 1023 30.21 852 25.16 5.4 41.7 33 -9.5 14.9
13:30 1022 30.18 852 25.16 5.5 41.8 30 -10.6 12.9
13:35 1022 30.18 852 25.16 5.5 41.9 29 -11.1 11.9
13:40 1022 30.18 852 25.16 5.6 42.1 28 -11.4 11.5
13:45 1022 30.18 852 25.16 6.6 44 26 -11.7 11
13:50 1022 30.18 852 25.16 7.4 45.4 25 -11.5 11.3
13:55 1022 30.18 852 25.16 7.9 46.2 24 -11.6 11.1
14:00 1022 30.18 852 25.16 7.6 45.8 23 -12.1 10.1
14:05 1022 30.18 852 25.16 7.9 46.3 23 -11.9 10.6
14:10 1022 30.18 852 25.16 8.6 47.4 21 -12.6 9.4
14:15 1022 30.18 852 25.16 8.8 47.9 22 -12 10.4
14:20 1022 30.18 852 25.16 9.4 48.9 21 -12.1 10.2
14:25 1022 30.18 851 25.13 10 50.1 19 -12.6 9.3
14:30 1022 30.18 851 25.13 10.4 50.7 18 -12.6 9.2
14:35 1022 30.18 851 25.13 10.3 50.6 16 -14.8 5.4
14:40 1022 30.18 851 25.13 9 48.3 19 -13.6 7.5
14:45 1022 30.18 851 25.13 9.7 49.4 19 -12.9 8.8
14:50 1022 30.18 851 25.13 9.7 49.5 20 -12.3 9.9
14:55 1022 30.18 851 25.13 9.2 48.6 19 -13.4 7.9
15:00 1022 30.18 851 25.13 9.2 48.5 19 -13.2 8.3
15:05 1022 30.18 852 25.16 9 48.1 20 -12.7 9.2
15:10 1022 30.18 852 25.16 8.4 47.1 20 -13.1 8.4
15:15 1022 30.18 852 25.16 8.8 47.9 21 -12.4 9.7
15:20 1022 30.18 852 25.16 8.3 47 20 -13.2 8.2
15:25 1022 30.18 852 25.16 8.3 46.9 20 -13.2 8.2
15:30 1022 30.18 852 25.16 8.7 47.6 20 -13.1 8.4
15:35 1022 30.18 852 25.16 8.5 47.3 20 -13.3 8.1
15:40 1022 30.18 852 25.16 8.4 47.1 19 -13.9 7
15:45 1023 30.21 852 25.16 8.1 46.6 20 -13.4 7.8
15:50 1022 30.18 852 25.16 9 48.3 18 -14.1 6.6
15:55 1022 30.18 852 25.16 9.5 49 18 -13.5 7.6
16:00 1022 30.18 852 25.16 9.7 49.5 18 -13.6 7.5
16:05 1022 30.18 852 25.16 10 50 19 -12.8 9
16:10 1022 30.18 852 25.16 10.3 50.5 19 -12.5 9.5
16:15 1022 30.18 852 25.16 10.4 50.8 19 -12.4 9.7
16:20 1022 30.18 852 25.16 10.6 51 19 -12.2 10.1
16:25 1022 30.18 851 25.13 10.5 50.8 19 -12.1 10.1
16:30 1022 30.18 852 25.16 10.6 51.1 18 -12.6 9.4
16:35 1022 30.18 852 25.16 10.6 51.1 19 -12.3 9.9
16:40 1022 30.18 852 25.16 10.1 50.1 22 -10.5 13.2
16:45 1022 30.18 852 25.16 10.2 50.3 24 -9.5 14.8
16:50 1022 30.18 852 25.16 10 50 23 -10.3 13.5
16:55 1022 30.18 852 25.16 9.7 49.4 24 -10.1 13.8
17:00 1022 30.18 852 25.16 9 48.1 25 -10.3 13.5
17:05 1023 30.21 852 25.16 8.7 47.6 25 -10.5 13.1
17:10 1023 30.21 852 25.16 8.8 47.8 24 -11 12.3
17:15 1023 30.21 852 25.16 9.2 48.6 21 -11.8 10.7
17:20 1023 30.21 852 25.16 9.3 48.7 22 -11.3 11.7
17:25 1023 30.21 852 25.16 9.2 48.6 22 -11.3 11.6
17:30 1023 30.21 852 25.16 9 48.2 22 -11.4 11.5
17:35 1023 30.21 852 25.16 8 46.4 25 -10.8 12.6
17:40 1023 30.21 852 25.16 7.9 46.3 24 -11.7 10.9
17:45 1023 30.21 852 25.16 8.1 46.5 25 -10.9 12.4
17:50 1022 30.18 852 25.16 8.2 46.7 25 -11 12.3
17:55 1022 30.18 852 25.16 8.2 46.7 25 -10.9 12.4
18:00 1022 30.18 852 25.16 8 46.4 27 -9.9 14.2
18:05 1022 30.18 852 25.16 7.3 45.2 27 -10.3 13.5
18:10 1022 30.18 852 25.16 6.8 44.3 29 -10.2 13.7
18:15 1022 30.18 852 25.16 6.6 43.9 29 -10 13.9
18:20 1023 30.21 852 25.16 6.4 43.6 28 -10.6 12.8
18:25 1023 30.21 852 25.16 6.4 43.5 29 -10.3 13.5
18:30 1023 30.21 852 25.16 6.2 43.2 30 -10.3 13.4
18:35 1023 30.21 852 25.16 5.8 42.4 28 -11.3 11.7
18:40 1023 30.21 852 25.16 5.4 41.7 29 -11.2 11.8
18:45 1023 30.21 852 25.16 5.2 41.4 30 -11.1 12
18:50 1023 30.21 852 25.16 5.1 41.1 30 -11.3 11.7
18:55 1023 30.21 852 25.16 4.8 40.7 31 -11.1 12.1
19:00 1023 30.21 852 25.16 4.5 40.1 32 -10.8 12.6
19:05 1023 30.21 852 25.16 4.1 39.3 33 -11 12.3
19:10 1023 30.21 852 25.16 4.4 39.9 32 -10.9 12.3
19:15 1023 30.21 852 25.16 4.7 40.4 32 -10.8 12.5
19:20 1023 30.21 852 25.16 4.8 40.6 31 -11.2 11.9
19:25 1023 30.21 852 25.16 4.8 40.6 31 -10.8 12.5
19:30 1023 30.21 852 25.16 4.6 40.3 34 -10.1 13.8
19:35 1023 30.21 852 25.16 4.2 39.6 34 -10.2 13.6
19:40 1023 30.21 852 25.16 4.1 39.4 33 -10.9 12.3
19:45 1023 30.21 852 25.16 4.1 39.5 33 -10.6 13
19:50 1023 30.21 852 25.16 3.6 38.6 41 -8.3 17
19:55 1023 30.21 852 25.16 2.5 36.5 45 -8.1 17.4
20:00 1023 30.21 852 25.16 1.9 35.3 48 -8 17.5
20:05 1023 30.21 852 25.16 1.1 33.9 47 -8.9 16
20:10 1023 30.21 852 25.16 1.4 34.5 47 -8.9 16
20:15 1023 30.21 852 25.16 1.6 35 46 -8.8 16.2
20:20 1023 30.21 852 25.16 2.1 35.7 43 -9.4 15.1
20:25 1023 30.21 852 25.16 2.5 36.6 39 -10 14
20:30 1023 30.21 852 25.16 3.1 37.6 38 -9.8 14.3
20:35 1023 30.21 852 25.16 3.2 37.8 37 -10.1 13.7
20:40 1023 30.21 852 25.16 3.4 38.2 35 -10.5 13.1
20:45 1023 30.21 852 25.16 3.7 38.7 36 -10 13.9
20:50 1023 30.21 852 25.16 3.6 38.4 36 -10 13.9
20:55 1023 30.21 852 25.16 3.6 38.5 36 -10.1 13.8
21:00 1023 30.21 852 25.16 3.5 38.3 36 -10.2 13.7
21:05 1023 30.21 852 25.16 3.2 37.7 39 -9.5 15
21:10 1023 30.21 852 25.16 2.6 36.7 40 -9.5 14.9
21:15 1023 30.21 852 25.16 2.6 36.6 39 -9.9 14.1
21:20 1023 30.21 852 25.16 2.7 36.9 39 -9.8 14.4
21:25 1023 30.21 852 25.16 2.9 37.2 38 -10 14
21:30 1023 30.21 852 25.16 3.3 37.9 36 -10.4 13.3
21:35 1023 30.21 853 25.19 3.4 38.2 38 -9.7 14.6
21:40 1023 30.21 853 25.19 3 37.5 40 -9.4 15
21:45 1024 30.24 853 25.19 2.5 36.5 40 -9.6 14.6
21:50 1024 30.24 853 25.19 2.3 36.1 40 -10 14
21:55 1024 30.24 853 25.19 2.4 36.3 44 -8.6 16.6
22:00 1024 30.24 853 25.19 1.9 35.4 44 -9 15.8
22:05 1024 30.24 853 25.19 1.9 35.5 45 -8.9 16
22:10 1024 30.24 853 25.19 1.9 35.5 45 -8.8 16.2
22:15 1024 30.24 853 25.19 1.9 35.4 45 -8.8 16.2
22:20 1024 30.24 853 25.19 1.8 35.2 45 -8.9 16
22:25 1024 30.24 853 25.19 1.6 34.9 46 -8.7 16.4
22:30 1024 30.24 853 25.19 1.5 34.6 46 -8.8 16.1
22:35 1024 30.24 853 25.19 1.4 34.5 47 -8.7 16.3
22:40 1024 30.24 853 25.19 1.3 34.3 48 -8.6 16.5
22:45 1024 30.24 853 25.19 1.1 34 48 -8.8 16.2
22:50 1024 30.24 853 25.19 1.4 34.6 47 -8.7 16.4
22:55 1024 30.24 853 25.19 1.5 34.7 48 -8.3 17
23:00 1024 30.24 853 25.19 1.5 34.6 49 -8.2 17.2
23:05 1024 30.24 853 25.19 1.4 34.6 48 -8.5 16.8
23:10 1024 30.24 853 25.19 1.5 34.7 46 -8.8 16.1
23:15 1024 30.24 853 25.19 1.6 34.9 45 -9.1 15.5
23:20 1024 30.24 854 25.22 1.9 35.4 44 -9 15.8
23:25 1024 30.24 854 25.22 1.9 35.4 43 -9.5 15
23:30 1024 30.24 854 25.22 2.2 35.9 42 -9.3 15.2
23:35 1024 30.24 854 25.22 2.1 35.8 44 -8.9 16
23:40 1024 30.24 854 25.22 1.5 34.7 48 -8.4 16.8
23:45 1025 30.27 854 25.22 0.7 33.2 51 -8.4 16.8
23:50 1025 30.27 854 25.22 0.2 32.3 51 -8.8 16.1
23:55 1025 30.27 854 25.22 0.5 32.9 48 -9.3 15.3
24:00 1025 30.27 854 25.22 0.5 32.9 51 -8.5 16.7